Time;durP1;ratioP1;P1;durP2;ratioP2;P2;SDS_P1;SDS_P2;PMS_P1;PMS_P2;Temp;Humidity;BMP_temperature;BMP_pressure;BME280_temperature;BME280_humidity;BME280_pressure;Samples;Min_cycle;Max_cycle;Signal;HPM_P1;HPM_P2
2023/12/08 00:01:31;;;;;;;18.17;13.85;;;7.40;99.90;;;;;;5016037;28;20092;-84
2023/12/08 00:03:57;;;;;;;15.38;12.88;;;7.40;99.90;;;;;;5000197;28;20406;-82
2023/12/08 00:06:23;;;;;;;32.40;19.23;;;7.30;99.90;;;;;;5000027;28;20391;-87
2023/12/08 00:08:53;;;;;;;50.72;22.50;;;7.30;99.90;;;;;;4999545;28;20437;-85
2023/12/08 00:11:19;;;;;;;88.72;39.13;;;7.30;99.90;;;;;;4986972;28;20121;-85
2023/12/08 00:13:46;;;;;;;34.60;17.30;;;7.30;99.90;;;;;;4996918;28;20033;-85
2023/12/08 00:16:12;;;;;;;22.85;15.73;;;7.20;99.90;;;;;;4980703;28;20136;-85
2023/12/08 00:18:38;;;;;;;18.50;14.23;;;7.20;99.90;;;;;;4980142;28;20111;-82
2023/12/08 00:21:05;;;;;;;45.17;22.80;;;7.20;99.90;;;;;;5014523;28;20022;-89
2023/12/08 00:23:31;;;;;;;16.45;12.70;;;7.10;99.90;;;;;;4981157;28;20093;-89
2023/12/08 00:25:58;;;;;;;12.55;10.35;;;7.20;99.90;;;;;;4981055;28;20084;-90
2023/12/08 00:28:24;;;;;;;10.90;9.93;;;7.10;99.90;;;;;;4981219;28;20022;-90
2023/12/08 00:30:51;;;;;;;12.23;10.65;;;7.10;99.90;;;;;;4981192;28;20112;-88
2023/12/08 00:33:17;;;;;;;11.00;10.05;;;7.10;99.90;;;;;;4981026;28;20029;-88
2023/12/08 00:35:44;;;;;;;10.85;9.82;;;7.20;99.90;;;;;;4981041;28;20160;-90
2023/12/08 00:38:10;;;;;;;12.07;10.25;;;7.10;99.90;;;;;;4992709;28;20025;-89
2023/12/08 00:40:36;;;;;;;10.68;9.57;;;7.10;99.90;;;;;;5015852;28;20034;-88
2023/12/08 00:43:03;;;;;;;10.68;9.63;;;7.00;99.90;;;;;;5000232;28;20025;-89
2023/12/08 00:45:29;;;;;;;9.75;8.85;;;7.00;99.90;;;;;;5000130;28;20060;-90
2023/12/08 00:47:55;;;;;;;10.50;9.30;;;7.00;99.90;;;;;;4984313;28;20045;-88
2023/12/08 00:50:22;;;;;;;10.55;9.65;;;7.00;99.90;;;;;;4979520;28;20130;-88
2023/12/08 00:52:48;;;;;;;9.27;8.48;;;7.00;99.90;;;;;;4996913;28;20033;-89
2023/12/08 00:55:14;;;;;;;9.25;8.35;;;7.00;99.90;;;;;;4997002;28;20089;-90
2023/12/08 00:57:41;;;;;;;11.13;9.30;;;7.00;99.90;;;;;;4996823;28;20049;-86
2023/12/08 01:00:08;;;;;;;9.68;8.60;;;7.00;99.90;;;;;;4996540;28;20487;-86
2023/12/08 01:02:34;;;;;;;10.40;9.40;;;7.00;99.90;;;;;;4996428;28;20054;-85
2023/12/08 01:05:00;;;;;;;9.45;8.75;;;7.00;99.90;;;;;;4996414;28;20026;-90
2023/12/08 01:07:27;;;;;;;9.35;8.63;;;7.00;99.90;;;;;;4996852;28;20053;-90
2023/12/08 01:09:53;;;;;;;9.80;8.77;;;7.00;99.90;;;;;;4996982;28;20034;-90
2023/12/08 01:12:19;;;;;;;9.85;8.70;;;7.00;99.90;;;;;;4996765;28;20108;-88
2023/12/08 01:14:46;;;;;;;10.00;9.10;;;7.00;99.90;;;;;;4997384;28;20537;-91
2023/12/08 01:17:12;;;;;;;9.52;8.70;;;7.10;99.90;;;;;;4996883;28;20548;-89
2023/12/08 01:19:38;;;;;;;10.82;9.10;;;7.10;99.90;;;;;;5002587;28;20029;-88
2023/12/08 01:22:05;;;;;;;9.20;8.45;;;7.00;99.90;;;;;;5000317;28;20022;-87
2023/12/08 01:24:31;;;;;;;9.55;8.45;;;7.00;99.90;;;;;;4996425;28;20045;-87
2023/12/08 01:26:57;;;;;;;8.43;7.80;;;7.10;99.90;;;;;;4996562;28;20030;-85
2023/12/08 01:29:24;;;;;;;8.38;7.68;;;7.10;99.90;;;;;;4995892;28;20495;-85
2023/12/08 01:31:51;;;;;;;8.50;7.75;;;7.20;99.90;;;;;;4979911;28;20112;-88
2023/12/08 01:34:17;;;;;;;10.60;9.43;;;7.20;99.90;;;;;;4996572;28;20034;-88
2023/12/08 01:36:43;;;;;;;11.52;10.50;;;7.30;99.90;;;;;;4996211;28;20034;-88
2023/12/08 01:39:10;;;;;;;13.27;10.18;;;7.20;99.90;;;;;;5012338;28;20097;-89
2023/12/08 01:41:40;;;;;;;11.70;9.73;;;7.20;99.90;;;;;;5012768;28;20021;-86
2023/12/08 01:44:06;;;;;;;10.32;9.32;;;7.20;99.90;;;;;;5005160;28;20030;-89
2023/12/08 01:46:32;;;;;;;8.90;8.20;;;7.10;99.90;;;;;;4999135;28;20053;-84
2023/12/08 01:48:59;;;;;;;10.60;8.77;;;7.10;99.90;;;;;;4997535;28;20030;-86
2023/12/08 01:51:26;;;;;;;8.93;8.23;;;7.20;99.90;;;;;;4997187;28;20029;-90
2023/12/08 01:53:52;;;;;;;8.88;7.97;;;7.10;99.90;;;;;;4994389;28;20075;-89
2023/12/08 01:56:18;;;;;;;7.90;7.30;;;7.10;99.90;;;;;;5000017;28;20487;-89
2023/12/08 01:58:45;;;;;;;8.45;7.72;;;7.10;99.90;;;;;;5002375;28;20077;-87
2023/12/08 02:01:12;;;;;;;10.00;8.00;;;7.10;99.90;;;;;;4996579;28;20022;-87
2023/12/08 02:03:42;;;;;;;8.95;8.05;;;7.10;99.90;;;;;;4972443;28;20030;-84
2023/12/08 02:06:10;;;;;;;8.30;7.53;;;7.20;99.90;;;;;;4996377;28;20066;-87
2023/12/08 02:08:36;;;;;;;8.50;7.65;;;7.20;99.90;;;;;;4996395;28;20030;-87
2023/12/08 02:11:03;;;;;;;7.90;7.22;;;7.30;99.90;;;;;;4996398;28;20102;-86
2023/12/08 02:13:29;;;;;;;10.25;6.80;;;7.20;99.90;;;;;;4995662;28;20041;-87
2023/12/08 02:16:17;;;;;;;7.25;6.75;;;7.30;99.90;;;;;;4974817;28;20125;-85
2023/12/08 02:18:45;;;;;;;9.73;6.88;;;7.40;99.90;;;;;;4999054;28;20022;-86
2023/12/08 02:21:15;;;;;;;9.35;7.00;;;7.30;99.90;;;;;;4999493;28;20029;-88
2023/12/08 02:23:48;;;;;;;9.60;6.82;;;7.40;99.90;;;;;;4992171;28;20026;-85
2023/12/08 02:26:14;;;;;;;7.93;6.30;;;7.30;99.90;;;;;;4999159;28;20026;-86
2023/12/08 02:28:41;;;;;;;7.10;6.47;;;7.30;99.90;;;;;;4991975;28;20037;-86
2023/12/08 02:31:12;;;;;;;6.65;6.15;;;7.20;99.90;;;;;;5015563;28;20501;-86
2023/12/08 02:33:43;;;;;;;7.22;6.53;;;7.30;99.90;;;;;;4999362;28;20387;-89
2023/12/08 02:36:10;;;;;;;7.28;6.55;;;7.20;99.90;;;;;;5015510;28;20145;-88
2023/12/08 02:38:38;;;;;;;8.30;6.18;;;7.10;99.90;;;;;;4999280;28;20503;-89
2023/12/08 02:41:05;;;;;;;6.63;6.03;;;7.10;99.90;;;;;;4999297;28;20550;-88
2023/12/08 02:43:31;;;;;;;6.90;6.20;;;7.00;99.90;;;;;;4998831;28;20049;-88
2023/12/08 02:45:57;;;;;;;6.45;5.88;;;7.00;99.90;;;;;;4993824;28;20030;-86
2023/12/08 02:48:24;;;;;;;8.18;6.18;;;7.00;99.90;;;;;;5002293;28;20029;-86
2023/12/08 02:50:51;;;;;;;6.57;5.97;;;7.00;99.90;;;;;;5002126;28;20053;-87
2023/12/08 02:53:18;;;;;;;7.43;6.35;;;6.90;99.90;;;;;;5007695;28;20126;-85
2023/12/08 02:55:45;;;;;;;6.53;5.85;;;7.00;99.90;;;;;;5025668;28;20115;-85
2023/12/08 02:58:11;;;;;;;10.55;6.03;;;7.00;99.90;;;;;;4991594;28;20028;-85
2023/12/08 03:00:37;;;;;;;11.32;6.00;;;7.00;99.90;;;;;;4982616;28;20069;-87
2023/12/08 03:03:04;;;;;;;7.32;5.40;;;6.90;99.90;;;;;;4981784;28;20049;-86
2023/12/08 03:05:30;;;;;;;8.07;5.72;;;6.90;99.90;;;;;;4982404;28;20033;-86
2023/12/08 03:07:56;;;;;;;6.22;5.63;;;6.80;99.90;;;;;;4982091;28;20034;-87
2023/12/08 03:10:22;;;;;;;6.05;5.55;;;6.80;99.90;;;;;;4982310;28;20034;-86
2023/12/08 03:12:49;;;;;;;7.68;5.90;;;6.80;99.90;;;;;;4998557;28;20455;-86
2023/12/08 03:15:15;;;;;;;6.82;6.18;;;6.70;99.90;;;;;;4981973;28;20038;-86
2023/12/08 03:17:43;;;;;;;6.53;5.70;;;6.70;99.90;;;;;;5001808;28;20076;-87
2023/12/08 03:20:10;;;;;;;7.45;5.80;;;6.70;99.90;;;;;;5034420;28;20034;-86
2023/12/08 03:22:37;;;;;;;6.28;5.47;;;6.70;99.90;;;;;;5001622;28;20021;-86
2023/12/08 03:25:03;;;;;;;10.45;5.97;;;6.60;99.90;;;;;;5032788;28;20112;-86
2023/12/08 03:27:29;;;;;;;5.85;5.35;;;6.60;99.90;;;;;;4981850;28;20030;-86
2023/12/08 03:29:57;;;;;;;8.27;5.78;;;6.60;99.90;;;;;;4982034;28;20022;-86
2023/12/08 03:32:24;;;;;;;5.93;5.32;;;6.70;99.90;;;;;;4982040;28;20034;-86
2023/12/08 03:34:50;;;;;;;6.32;5.20;;;6.70;99.90;;;;;;4981661;28;20034;-86
2023/12/08 03:37:17;;;;;;;12.45;5.88;;;6.70;99.90;;;;;;4981714;28;20038;-86
2023/12/08 03:39:44;;;;;;;8.50;5.53;;;6.70;99.90;;;;;;4981616;28;20021;-86
2023/12/08 03:42:11;;;;;;;8.80;5.70;;;6.70;99.90;;;;;;4981707;28;20482;-86
2023/12/08 03:44:37;;;;;;;11.48;5.72;;;6.60;99.90;;;;;;4981714;28;20454;-87
2023/12/08 03:47:03;;;;;;;5.75;5.20;;;6.60;99.90;;;;;;4976088;28;20081;-86
2023/12/08 03:49:29;;;;;;;7.00;5.70;;;6.50;99.90;;;;;;4981530;28;20034;-86
2023/12/08 03:51:56;;;;;;;7.38;5.10;;;6.50;99.90;;;;;;4981297;28;20083;-86
2023/12/08 03:54:22;;;;;;;5.97;5.40;;;6.50;99.90;;;;;;4997695;28;20057;-86
2023/12/08 03:56:48;;;;;;;5.88;5.20;;;6.50;99.90;;;;;;4997353;28;20430;-86
2023/12/08 03:59:15;;;;;;;9.75;5.35;;;6.50;99.90;;;;;;4981474;28;20025;-87
2023/12/08 04:01:42;;;;;;;6.32;4.90;;;6.40;99.90;;;;;;4981322;28;20034;-86
2023/12/08 04:04:10;;;;;;;5.75;5.18;;;6.40;99.90;;;;;;4981397;28;20030;-86
2023/12/08 04:06:37;;;;;;;5.88;5.28;;;6.40;99.90;;;;;;4981154;28;20058;-86
2023/12/08 04:09:03;;;;;;;5.68;5.15;;;6.40;99.90;;;;;;4981051;28;20029;-86
2023/12/08 04:11:30;;;;;;;6.00;5.40;;;6.30;99.90;;;;;;4973565;28;20113;-87
2023/12/08 04:13:56;;;;;;;6.88;5.18;;;6.30;99.90;;;;;;4957817;28;20416;-86
2023/12/08 04:16:23;;;;;;;6.18;4.97;;;6.30;99.90;;;;;;4947078;29;20059;-86
2023/12/08 04:18:50;;;;;;;10.15;5.30;;;6.30;99.90;;;;;;4954226;29;20059;-87
2023/12/08 04:21:18;;;;;;;6.32;5.43;;;6.30;99.90;;;;;;4938164;29;20031;-86
2023/12/08 04:23:45;;;;;;;7.07;5.68;;;6.30;99.90;;;;;;4954524;29;20079;-86
2023/12/08 04:26:11;;;;;;;11.77;5.53;;;6.20;99.90;;;;;;4938175;29;20023;-86
2023/12/08 04:28:39;;;;;;;7.50;5.47;;;6.20;99.90;;;;;;4946925;29;20125;-86
2023/12/08 04:31:05;;;;;;;8.30;5.20;;;6.20;99.90;;;;;;4942894;29;20034;-85
2023/12/08 04:33:32;;;;;;;5.55;5.00;;;6.20;99.90;;;;;;4943337;29;20103;-85
2023/12/08 04:35:58;;;;;;;6.47;5.60;;;6.20;99.90;;;;;;4960393;28;20050;-86
2023/12/08 04:38:24;;;;;;;5.90;5.05;;;6.20;99.90;;;;;;4966689;28;20034;-85
2023/12/08 04:40:51;;;;;;;7.10;5.40;;;6.20;99.90;;;;;;4959930;28;20121;-85
2023/12/08 04:43:17;;;;;;;5.47;4.97;;;6.20;99.90;;;;;;4960209;28;20070;-86
2023/12/08 04:45:45;;;;;;;5.60;4.93;;;6.20;99.90;;;;;;4960550;28;20030;-86
2023/12/08 04:48:11;;;;;;;6.32;4.90;;;6.20;99.90;;;;;;4978321;28;20045;-85
2023/12/08 04:50:41;;;;;;;6.40;5.10;;;6.20;99.90;;;;;;4996582;28;20038;-86
2023/12/08 04:53:07;;;;;;;7.65;5.28;;;6.10;99.90;;;;;;4980517;28;20452;-86
2023/12/08 04:55:33;;;;;;;7.82;5.13;;;6.00;99.90;;;;;;4980005;28;20047;-85
2023/12/08 04:58:00;;;;;;;7.40;5.15;;;6.00;99.90;;;;;;4980142;28;20482;-86
2023/12/08 05:00:26;;;;;;;7.93;4.95;;;6.00;99.90;;;;;;4996538;28;20038;-85
2023/12/08 05:02:52;;;;;;;10.25;5.10;;;5.90;99.90;;;;;;4980315;28;20129;-85
2023/12/08 05:05:19;;;;;;;7.28;4.93;;;5.90;99.90;;;;;;4980289;28;20025;-85
2023/12/08 05:07:45;;;;;;;10.32;5.47;;;5.80;99.90;;;;;;4980162;28;20026;-86
2023/12/08 05:10:11;;;;;;;5.47;4.95;;;5.70;99.90;;;;;;4980359;28;20025;-85
2023/12/08 05:12:37;;;;;;;7.95;5.18;;;5.60;99.90;;;;;;4996337;28;20034;-85
2023/12/08 05:15:04;;;;;;;8.88;5.47;;;5.60;99.90;;;;;;4980029;28;20037;-85
2023/12/08 05:17:31;;;;;;;10.18;5.90;;;5.60;99.90;;;;;;4979645;28;20103;-85
2023/12/08 05:19:57;;;;;;;8.70;5.65;;;5.70;99.90;;;;;;4996137;28;20033;-85
2023/12/08 05:22:23;;;;;;;8.27;5.20;;;5.70;99.90;;;;;;4979732;28;20026;-86
2023/12/08 05:24:50;;;;;;;9.52;5.00;;;5.80;99.90;;;;;;4995879;28;20030;-85
2023/12/08 05:27:16;;;;;;;8.48;5.00;;;5.70;99.90;;;;;;4982993;28;20025;-86
2023/12/08 05:29:42;;;;;;;8.48;5.15;;;5.70;99.90;;;;;;5000061;28;20026;-85
2023/12/08 05:32:10;;;;;;;9.27;5.20;;;5.60;99.90;;;;;;4983874;28;20057;-85
2023/12/08 05:34:36;;;;;;;5.75;4.60;;;5.60;99.90;;;;;;4983617;28;20108;-85
2023/12/08 05:37:03;;;;;;;9.13;5.40;;;5.50;99.90;;;;;;4983549;28;20032;-86
2023/12/08 05:39:29;;;;;;;10.38;5.10;;;5.40;99.90;;;;;;4999746;28;20030;-85
2023/12/08 05:41:55;;;;;;;5.15;4.72;;;5.40;99.90;;;;;;4983658;28;20033;-85
2023/12/08 05:44:21;;;;;;;9.30;5.13;;;5.30;99.90;;;;;;4999667;28;20030;-85
2023/12/08 05:46:48;;;;;;;5.97;5.28;;;5.30;99.90;;;;;;4986577;28;20046;-85
2023/12/08 05:49:17;;;;;;;9.48;5.50;;;5.30;99.90;;;;;;4997242;28;20034;-85
2023/12/08 05:51:44;;;;;;;7.43;5.70;;;5.30;99.90;;;;;;4999334;28;20029;-85
2023/12/08 05:54:11;;;;;;;8.60;5.38;;;5.20;99.90;;;;;;5003057;28;20037;-85
2023/12/08 05:56:38;;;;;;;8.18;5.55;;;5.20;99.90;;;;;;5002772;28;20537;-85
2023/12/08 05:59:05;;;;;;;8.18;5.60;;;5.30;99.90;;;;;;5002831;28;20053;-86
2023/12/08 06:01:31;;;;;;;7.75;5.03;;;5.30;99.90;;;;;;5002910;28;20057;-85
2023/12/08 06:03:58;;;;;;;8.45;5.72;;;5.20;99.90;;;;;;5003141;28;20029;-86
2023/12/08 06:06:24;;;;;;;7.72;4.97;;;5.20;99.90;;;;;;5002483;28;20025;-86
2023/12/08 06:08:50;;;;;;;8.10;5.10;;;5.40;99.90;;;;;;5006189;28;20108;-85
2023/12/08 06:11:17;;;;;;;8.25;5.05;;;5.60;99.90;;;;;;5003883;28;20079;-85
2023/12/08 06:13:43;;;;;;;8.25;5.57;;;5.70;99.90;;;;;;5002626;28;20041;-86
2023/12/08 06:16:10;;;;;;;7.53;5.10;;;5.70;99.90;;;;;;5000094;28;20038;-86
2023/12/08 06:18:36;;;;;;;5.65;4.97;;;5.80;99.90;;;;;;4999144;28;20382;-85
2023/12/08 06:21:03;;;;;;;11.55;5.60;;;5.90;99.90;;;;;;5015547;28;20544;-85
2023/12/08 06:23:30;;;;;;;9.50;5.88;;;6.00;99.90;;;;;;5015299;28;20108;-85
2023/12/08 06:25:56;;;;;;;7.00;5.10;;;6.10;99.90;;;;;;5014965;28;20414;-85
2023/12/08 06:28:23;;;;;;;7.78;5.50;;;6.20;99.90;;;;;;5018580;28;20116;-85
2023/12/08 06:30:49;;;;;;;9.13;5.57;;;6.20;99.90;;;;;;5002003;28;20048;-85
2023/12/08 06:33:16;;;;;;;8.75;6.40;;;6.30;99.90;;;;;;5001953;28;20066;-85
2023/12/08 06:35:42;;;;;;;7.03;6.00;;;6.30;99.90;;;;;;5001780;28;20052;-85
2023/12/08 06:38:10;;;;;;;7.35;6.20;;;6.30;99.90;;;;;;5020366;28;20492;-85
2023/12/08 06:40:36;;;;;;;9.43;6.45;;;6.40;99.90;;;;;;4991456;28;20036;-84
2023/12/08 06:43:03;;;;;;;8.57;7.20;;;6.60;99.90;;;;;;4982373;28;20022;-85
2023/12/08 06:45:29;;;;;;;9.05;7.93;;;6.80;99.90;;;;;;4982691;28;20034;-86
2023/12/08 06:47:56;;;;;;;10.40;8.35;;;7.00;99.90;;;;;;4994799;28;20057;-87
2023/12/08 06:50:22;;;;;;;9.82;8.98;;;7.20;99.90;;;;;;5016548;28;20056;-85
2023/12/08 06:52:51;;;;;;;11.05;10.25;;;7.50;99.90;;;;;;5018200;28;20029;-86
2023/12/08 06:55:18;;;;;;;13.65;12.20;;;7.70;99.90;;;;;;5001626;28;20103;-86
2023/12/08 06:57:45;;;;;;;15.57;14.07;;;7.80;99.90;;;;;;4998610;28;20029;-87
2023/12/08 07:00:11;;;;;;;15.48;14.30;;;7.80;99.90;;;;;;4982169;28;20030;-87
2023/12/08 07:02:38;;;;;;;16.25;15.05;;;7.80;99.90;;;;;;4982292;28;20033;-86
2023/12/08 07:05:05;;;;;;;17.20;15.73;;;7.90;99.90;;;;;;4982180;28;20034;-86
2023/12/08 07:07:32;;;;;;;17.38;15.60;;;8.10;99.90;;;;;;4982034;28;20112;-87
2023/12/08 07:09:58;;;;;;;16.77;15.68;;;8.10;99.90;;;;;;4998295;28;20490;-86
2023/12/08 07:12:27;;;;;;;17.75;16.25;;;8.30;99.90;;;;;;4988210;28;20109;-86
2023/12/08 07:14:54;;;;;;;17.95;16.45;;;8.30;99.90;;;;;;5001501;28;20036;-86
2023/12/08 07:17:20;;;;;;;18.80;17.30;;;8.40;99.90;;;;;;5001532;28;20034;-86
2023/12/08 07:19:47;;;;;;;18.98;17.38;;;8.50;99.90;;;;;;4982298;28;20101;-86
2023/12/08 07:22:13;;;;;;;19.80;18.30;;;8.80;99.90;;;;;;4986443;28;20478;-87
2023/12/08 07:24:40;;;;;;;20.42;18.85;;;9.00;99.90;;;;;;5001549;28;20108;-87
2023/12/08 07:27:06;;;;;;;21.88;19.75;;;9.10;99.90;;;;;;5001545;28;20021;-86
2023/12/08 07:29:33;;;;;;;22.35;20.25;;;9.20;99.90;;;;;;5001343;28;20033;-87
2023/12/08 07:31:59;;;;;;;21.20;19.67;;;9.40;99.90;;;;;;5001345;28;20037;-87
2023/12/08 07:34:25;;;;;;;21.33;19.67;;;9.40;99.90;;;;;;5001152;28;20033;-88
2023/12/08 07:36:52;;;;;;;21.77;20.08;;;9.60;99.90;;;;;;5001218;28;20486;-86
2023/12/08 07:39:21;;;;;;;21.77;20.27;;;9.60;99.90;;;;;;5001176;28;20116;-87
2023/12/08 07:41:47;;;;;;;22.08;20.50;;;9.70;99.90;;;;;;5001111;28;20033;-87
2023/12/08 07:44:14;;;;;;;22.15;20.63;;;9.90;99.90;;;;;;5001207;28;20117;-86
2023/12/08 07:46:41;;;;;;;22.58;21.05;;;9.90;99.90;;;;;;5000636;28;20176;-87
2023/12/08 07:49:08;;;;;;;21.77;20.38;;;9.90;99.90;;;;;;4977819;28;20038;-86
2023/12/08 07:51:35;;;;;;;21.35;19.95;;;10.10;99.90;;;;;;4962058;28;20037;-86
2023/12/08 07:54:04;;;;;;;21.15;19.65;;;10.30;99.90;;;;;;4967520;28;20475;-87
2023/12/08 07:56:33;;;;;;;21.40;19.80;;;10.50;99.90;;;;;;4977800;28;20051;-87
2023/12/08 07:59:00;;;;;;;21.65;19.88;;;10.70;99.90;;;;;;4973078;28;20117;-87
2023/12/08 08:01:26;;;;;;;20.40;18.77;;;10.80;99.90;;;;;;4977862;28;20039;-88
2023/12/08 08:03:52;;;;;;;19.40;18.00;;;10.80;99.90;;;;;;4972368;28;20052;-87
2023/12/08 08:06:22;;;;;;;19.30;17.80;;;10.90;99.90;;;;;;4975799;28;20022;-87
2023/12/08 08:08:49;;;;;;;18.33;16.85;;;11.00;99.90;;;;;;4971424;28;20030;-88
2023/12/08 08:11:15;;;;;;;18.00;16.63;;;11.00;99.90;;;;;;4977869;28;20026;-87
2023/12/08 08:13:41;;;;;;;16.63;15.63;;;11.00;99.90;;;;;;4971000;28;20027;-86
2023/12/08 08:16:08;;;;;;;16.50;15.40;;;11.00;99.90;;;;;;4980966;28;20091;-86
2023/12/08 08:18:34;;;;;;;17.55;16.05;;;11.00;99.90;;;;;;4980929;28;20032;-88
2023/12/08 08:21:00;;;;;;;18.00;16.58;;;11.10;99.90;;;;;;4980647;28;20113;-87
2023/12/08 08:23:26;;;;;;;17.67;16.48;;;11.20;99.90;;;;;;4980746;28;20030;-87
2023/12/08 08:25:53;;;;;;;17.98;16.67;;;11.30;99.90;;;;;;4980564;28;20026;-87
2023/12/08 08:28:19;;;;;;;18.08;16.65;;;11.30;99.90;;;;;;4980489;28;20049;-86
2023/12/08 08:30:45;;;;;;;18.83;17.20;;;11.30;99.90;;;;;;4980494;28;20029;-86
2023/12/08 08:33:11;;;;;;;18.05;16.92;;;11.30;99.90;;;;;;4980518;28;20502;-86
2023/12/08 08:35:39;;;;;;;23.88;21.42;;;11.40;99.90;;;;;;4980532;28;20030;-87
2023/12/08 08:38:05;;;;;;;24.00;21.42;;;11.30;99.90;;;;;;4980712;28;20045;-87
2023/12/08 08:40:32;;;;;;;22.80;20.85;;;11.50;99.90;;;;;;4980493;28;20030;-87
2023/12/08 08:42:58;;;;;;;20.75;19.10;;;11.60;99.90;;;;;;4980513;28;20030;-86
2023/12/08 08:45:24;;;;;;;20.85;19.45;;;11.50;99.90;;;;;;4980466;28;20506;-87
2023/12/08 08:47:51;;;;;;;20.50;18.75;;;11.60;99.90;;;;;;4979024;28;20057;-87
2023/12/08 08:50:17;;;;;;;20.25;18.85;;;11.70;99.90;;;;;;4974309;28;20026;-86
2023/12/08 08:52:44;;;;;;;20.63;19.23;;;11.70;99.90;;;;;;4980437;28;20490;-87
2023/12/08 08:55:10;;;;;;;20.35;18.92;;;11.80;99.90;;;;;;4976862;28;20380;-86
2023/12/08 08:57:36;;;;;;;20.38;18.98;;;11.90;99.90;;;;;;4961051;28;20026;-87
2023/12/08 09:00:04;;;;;;;20.38;19.17;;;11.90;99.90;;;;;;4974189;28;20105;-87
2023/12/08 09:02:30;;;;;;;21.02;19.58;;;11.90;99.90;;;;;;4979024;28;20041;-87
2023/12/08 09:04:57;;;;;;;22.35;20.55;;;12.20;99.90;;;;;;4980826;28;20037;-86
2023/12/08 09:07:23;;;;;;;22.15;20.75;;;12.30;99.90;;;;;;4982609;28;20030;-89
2023/12/08 09:09:50;;;;;;;22.75;21.45;;;12.20;99.90;;;;;;4970358;28;20117;-85
2023/12/08 09:12:16;;;;;;;23.55;22.15;;;12.10;99.90;;;;;;4976245;28;20027;-85
2023/12/08 09:14:46;;;;;;;23.40;21.92;;;12.00;99.90;;;;;;4969724;28;20030;-87
2023/12/08 09:17:12;;;;;;;23.48;22.05;;;12.00;99.90;;;;;;4977008;28;20065;-87
2023/12/08 09:19:38;;;;;;;24.23;22.63;;;12.00;99.90;;;;;;4969514;28;20057;-87
2023/12/08 09:22:05;;;;;;;23.98;22.58;;;12.00;99.90;;;;;;4977323;28;20034;-89
2023/12/08 09:24:33;;;;;;;25.42;23.73;;;12.00;99.90;;;;;;4976229;28;20035;-83
2023/12/08 09:27:01;;;;;;;26.88;24.60;;;12.10;99.90;;;;;;4958806;28;20046;-83
2023/12/08 09:29:27;;;;;;;26.73;24.90;;;12.20;99.90;;;;;;4975094;28;20042;-83
2023/12/08 09:31:54;;;;;;;26.25;24.42;;;12.20;99.90;;;;;;4991374;28;20327;-83
2023/12/08 09:34:21;;;;;;;26.60;24.75;;;12.30;99.90;;;;;;4991321;28;20049;-83
2023/12/08 09:36:47;;;;;;;25.88;24.17;;;12.40;99.90;;;;;;4958537;28;20046;-83
2023/12/08 09:39:13;;;;;;;23.35;21.95;;;12.40;99.90;;;;;;4958225;28;20019;-82
2023/12/08 09:41:40;;;;;;;24.30;22.65;;;12.50;99.90;;;;;;4974957;28;20445;-84
2023/12/08 09:44:12;;;;;;;23.73;22.13;;;12.50;99.90;;;;;;4974982;28;20023;-83
2023/12/08 09:46:45;;;;;;;23.27;21.88;;;12.50;99.90;;;;;;4960213;28;20054;-84
2023/12/08 09:49:23;;;;;;;24.15;22.40;;;12.40;99.90;;;;;;4980173;28;20042;-90
2023/12/08 09:51:51;;;;;;;24.90;23.30;;;12.50;99.90;;;;;;4966236;28;20042;-83
2023/12/08 09:54:19;;;;;;;25.63;23.95;;;12.40;99.90;;;;;;4969273;28;20117;-85
2023/12/08 09:56:52;;;;;;;26.33;24.73;;;12.40;99.90;;;;;;4971663;28;20049;-84
2023/12/08 09:59:23;;;;;;;26.77;24.70;;;12.50;99.90;;;;;;4956809;28;20039;-83
2023/12/08 10:01:50;;;;;;;29.83;28.02;;;12.60;99.90;;;;;;5000556;28;20045;-84
2023/12/08 10:04:18;;;;;;;30.48;28.67;;;12.50;99.90;;;;;;4995293;28;20026;-86
2023/12/08 10:06:45;;;;;;;30.40;28.60;;;12.50;99.90;;;;;;4978697;28;20483;-83
2023/12/08 10:09:15;;;;;;;30.08;28.13;;;12.60;99.90;;;;;;5011221;28;20033;-83
2023/12/08 10:11:43;;;;;;;30.67;28.58;;;12.70;99.90;;;;;;4995794;28;20117;-84
2023/12/08 10:14:11;;;;;;;30.95;28.77;;;12.70;99.90;;;;;;4999014;28;20479;-82
2023/12/08 10:16:38;;;;;;;30.25;28.35;;;12.90;99.90;;;;;;5016209;28;20129;-85
2023/12/08 10:19:09;;;;;;;62.70;44.08;;;12.90;99.90;;;;;;4989546;28;20030;-85
2023/12/08 10:21:36;;;;;;;30.42;28.40;;;13.00;99.90;;;;;;4994892;28;20391;-89
2023/12/08 10:24:04;;;;;;;28.73;27.13;;;13.00;99.90;;;;;;4982288;28;20087;-84
2023/12/08 10:26:32;;;;;;;29.52;27.63;;;12.80;99.90;;;;;;4997952;28;20489;-90
2023/12/08 10:29:00;;;;;;;29.45;27.77;;;12.60;99.90;;;;;;4987692;28;20125;-84
2023/12/08 10:31:28;;;;;;;29.83;27.85;;;12.60;99.90;;;;;;4982925;28;20018;-83
2023/12/08 10:33:55;;;;;;;33.60;31.08;;;12.70;99.90;;;;;;5015649;28;20083;-90
2023/12/08 10:36:22;;;;;;;31.33;29.23;;;12.80;99.90;;;;;;4982214;28;20032;-86
2023/12/08 10:38:50;;;;;;;31.70;29.70;;;12.80;99.90;;;;;;4982471;28;20076;-86
2023/12/08 10:41:17;;;;;;;30.75;28.67;;;12.90;99.90;;;;;;4998671;28;20025;-90
2023/12/08 10:43:45;;;;;;;32.03;29.92;;;12.90;99.90;;;;;;4982610;28;20026;-86
2023/12/08 10:46:12;;;;;;;30.23;28.42;;;12.90;99.90;;;;;;4983464;28;20041;-86
2023/12/08 10:48:40;;;;;;;31.92;29.70;;;13.00;99.90;;;;;;5001800;28;20502;-85
2023/12/08 10:51:13;;;;;;;31.05;28.95;;;13.20;99.90;;;;;;5017535;28;20029;-85
2023/12/08 10:53:40;;;;;;;31.35;29.33;;;13.30;99.90;;;;;;5000792;28;20033;-83
2023/12/08 10:56:10;;;;;;;31.25;29.25;;;13.00;99.90;;;;;;5017290;28;20053;-84
2023/12/08 10:58:42;;;;;;;31.90;29.75;;;13.00;99.90;;;;;;4994273;28;20037;-85
2023/12/08 11:01:12;;;;;;;31.30;29.35;;;13.00;99.90;;;;;;4995909;28;20037;-86
2023/12/08 11:03:44;;;;;;;32.67;30.42;;;12.90;99.90;;;;;;5001447;28;20033;-86
2023/12/08 11:06:21;;;;;;;33.30;31.00;;;12.80;99.90;;;;;;5006346;28;20097;-91
2023/12/08 11:08:54;;;;;;;32.00;29.92;;;12.60;99.90;;;;;;5003494;28;20037;-91
2023/12/08 11:11:26;;;;;;;31.65;29.63;;;12.30;99.90;;;;;;4996388;28;20464;-86
2023/12/08 11:14:13;;;;;;;32.70;30.58;;;12.20;99.90;;;;;;5008961;28;20026;-87
2023/12/08 11:17:04;;;;;;;32.00;30.02;;;12.20;99.90;;;;;;4998687;28;20507;-87
2023/12/08 11:19:35;;;;;;;32.42;30.42;;;12.40;99.90;;;;;;5001659;28;20435;-86
2023/12/08 11:22:02;;;;;;;31.63;29.52;;;12.50;99.90;;;;;;5001319;28;20025;-86
2023/12/08 11:24:29;;;;;;;31.33;29.58;;;12.50;99.90;;;;;;5000828;28;20029;-86
2023/12/08 11:27:07;;;;;;;31.92;30.13;;;12.60;99.90;;;;;;4998924;28;20105;-86
2023/12/08 11:29:57;;;;;;;32.97;30.95;;;12.60;99.90;;;;;;5013815;28;20113;-86
2023/12/08 11:32:42;;;;;;;33.33;31.00;;;12.70;99.90;;;;;;5015523;28;20060;-86
2023/12/08 11:35:13;;;;;;;33.05;30.90;;;12.90;99.90;;;;;;4999427;28;20465;-86
2023/12/08 11:37:41;;;;;;;33.67;31.77;;;12.80;99.90;;;;;;5000658;28;20095;-86
2023/12/08 11:40:11;;;;;;;34.28;31.88;;;12.70;99.90;;;;;;5000632;28;20079;-86
2023/12/08 11:42:45;;;;;;;35.72;33.28;;;12.80;99.90;;;;;;4985238;28;20080;-87
2023/12/08 11:45:12;;;;;;;33.45;31.25;;;12.90;99.90;;;;;;5000885;28;20080;-87
2023/12/08 11:47:39;;;;;;;32.13;30.13;;;13.00;99.90;;;;;;4990706;28;20613;-86
2023/12/08 11:50:07;;;;;;;32.30;30.38;;;13.10;99.90;;;;;;4997513;28;20395;-86
2023/12/08 11:52:36;;;;;;;32.03;30.23;;;13.00;99.90;;;;;;5000534;28;20056;-86
2023/12/08 11:55:12;;;;;;;32.80;30.77;;;12.90;99.90;;;;;;5000498;28;20041;-86
2023/12/08 11:57:53;;;;;;;33.25;30.95;;;12.70;99.90;;;;;;5000577;28;20029;-87
2023/12/08 12:00:24;;;;;;;33.88;31.55;;;12.60;99.90;;;;;;4981154;28;20430;-85
2023/12/08 12:02:53;;;;;;;32.65;30.65;;;12.70;99.90;;;;;;4980732;28;20117;-89
2023/12/08 12:05:20;;;;;;;31.88;30.08;;;12.80;99.90;;;;;;4980335;28;20038;-83
2023/12/08 12:07:50;;;;;;;32.15;30.35;;;13.00;99.90;;;;;;4996227;28;20028;-83
2023/12/08 12:10:18;;;;;;;32.45;30.45;;;12.90;99.90;;;;;;4980473;28;20120;-85
2023/12/08 12:13:09;;;;;;;31.90;30.10;;;12.90;99.90;;;;;;4980675;28;20018;-85
2023/12/08 12:15:37;;;;;;;32.58;30.35;;;12.90;99.90;;;;;;4986569;28;20096;-84
2023/12/08 12:18:04;;;;;;;32.10;30.20;;;12.70;99.90;;;;;;4986746;28;20072;-85
2023/12/08 12:20:34;;;;;;;32.65;30.70;;;12.70;99.90;;;;;;5000423;28;20397;-85
2023/12/08 12:23:05;;;;;;;32.63;30.73;;;12.70;99.90;;;;;;5000222;28;20033;-89
2023/12/08 12:25:33;;;;;;;32.20;30.40;;;12.80;99.90;;;;;;4998691;28;20033;-84
2023/12/08 12:27:59;;;;;;;32.25;30.23;;;12.70;99.90;;;;;;4999009;28;20032;-85
2023/12/08 12:30:26;;;;;;;32.13;30.23;;;12.60;99.90;;;;;;4998604;28;20033;-82
2023/12/08 12:32:54;;;;;;;32.55;30.52;;;12.70;99.90;;;;;;5016135;28;20504;-83
2023/12/08 12:35:22;;;;;;;31.90;29.95;;;12.90;99.90;;;;;;5015903;28;20065;-88
2023/12/08 12:37:49;;;;;;;32.50;30.48;;;12.90;99.90;;;;;;4999651;28;20039;-84
2023/12/08 12:40:15;;;;;;;31.52;29.73;;;12.80;99.90;;;;;;5004188;28;20053;-84
2023/12/08 12:42:47;;;;;;;32.58;30.58;;;12.60;99.90;;;;;;5033643;28;20018;-84